sensor_id;sensor_type;location;lat;lon;timestamp;temperature;humidity
81138;DHT22;70623;50.886;3.892;2023-06-14T00:02:11;20.70;36.70
81138;DHT22;70623;50.886;3.892;2023-06-14T00:04:37;20.60;37.00
81138;DHT22;70623;50.886;3.892;2023-06-14T00:07:05;20.60;37.60
81138;DHT22;70623;50.886;3.892;2023-06-14T00:09:33;20.50;38.10
81138;DHT22;70623;50.886;3.892;2023-06-14T00:11:59;20.30;38.80
81138;DHT22;70623;50.886;3.892;2023-06-14T00:14:24;20.40;38.90
81138;DHT22;70623;50.886;3.892;2023-06-14T00:16:50;20.30;39.20
81138;DHT22;70623;50.886;3.892;2023-06-14T00:19:20;20.20;39.70
81138;DHT22;70623;50.886;3.892;2023-06-14T00:21:46;20.20;39.70
81138;DHT22;70623;50.886;3.892;2023-06-14T00:24:12;20.10;40.10
81138;DHT22;70623;50.886;3.892;2023-06-14T00:26:37;20.20;40.20
81138;DHT22;70623;50.886;3.892;2023-06-14T00:29:03;20.20;40.00
81138;DHT22;70623;50.886;3.892;2023-06-14T00:31:31;19.80;41.60
81138;DHT22;70623;50.886;3.892;2023-06-14T00:33:57;19.80;41.90
81138;DHT22;70623;50.886;3.892;2023-06-14T00:36:25;19.60;42.70
81138;DHT22;70623;50.886;3.892;2023-06-14T00:38:50;19.70;42.70
81138;DHT22;70623;50.886;3.892;2023-06-14T00:41:16;19.80;42.10
81138;DHT22;70623;50.886;3.892;2023-06-14T00:43:42;19.90;42.00
81138;DHT22;70623;50.886;3.892;2023-06-14T00:46:10;20.10;41.30
81138;DHT22;70623;50.886;3.892;2023-06-14T00:48:36;20.20;41.20
81138;DHT22;70623;50.886;3.892;2023-06-14T00:51:05;19.90;42.10
81138;DHT22;70623;50.886;3.892;2023-06-14T00:53:31;19.70;43.20
81138;DHT22;70623;50.886;3.892;2023-06-14T00:56:03;19.40;44.60
81138;DHT22;70623;50.886;3.892;2023-06-14T00:58:29;19.50;44.30
81138;DHT22;70623;50.886;3.892;2023-06-14T01:00:58;19.50;43.90
81138;DHT22;70623;50.886;3.892;2023-06-14T01:03:24;19.80;43.20
81138;DHT22;70623;50.886;3.892;2023-06-14T01:06:02;19.80;42.90
81138;DHT22;70623;50.886;3.892;2023-06-14T01:08:47;19.90;42.80
81138;DHT22;70623;50.886;3.892;2023-06-14T01:11:38;19.90;42.50
81138;DHT22;70623;50.886;3.892;2023-06-14T01:14:06;19.90;42.50
81138;DHT22;70623;50.886;3.892;2023-06-14T01:16:33;19.80;42.70
81138;DHT22;70623;50.886;3.892;2023-06-14T01:19:01;19.70;43.10
81138;DHT22;70623;50.886;3.892;2023-06-14T01:21:30;19.60;43.60
81138;DHT22;70623;50.886;3.892;2023-06-14T01:23:55;19.60;43.70
81138;DHT22;70623;50.886;3.892;2023-06-14T01:26:24;19.60;43.70
81138;DHT22;70623;50.886;3.892;2023-06-14T01:28:54;19.50;43.80
81138;DHT22;70623;50.886;3.892;2023-06-14T01:31:23;19.50;44.10
81138;DHT22;70623;50.886;3.892;2023-06-14T01:33:52;19.50;44.10
81138;DHT22;70623;50.886;3.892;2023-06-14T01:36:22;19.40;44.20
81138;DHT22;70623;50.886;3.892;2023-06-14T01:38:50;19.40;44.40
81138;DHT22;70623;50.886;3.892;2023-06-14T01:41:18;19.30;44.40
81138;DHT22;70623;50.886;3.892;2023-06-14T01:43:47;19.30;44.30
81138;DHT22;70623;50.886;3.892;2023-06-14T01:46:14;19.30;44.50
81138;DHT22;70623;50.886;3.892;2023-06-14T01:48:41;19.20;44.80
81138;DHT22;70623;50.886;3.892;2023-06-14T01:51:09;19.10;45.20
81138;DHT22;70623;50.886;3.892;2023-06-14T01:53:35;19.00;45.50
81138;DHT22;70623;50.886;3.892;2023-06-14T01:56:01;19.00;45.10
81138;DHT22;70623;50.886;3.892;2023-06-14T01:58:29;18.90;45.20
81138;DHT22;70623;50.886;3.892;2023-06-14T02:00:55;18.80;45.70
81138;DHT22;70623;50.886;3.892;2023-06-14T02:03:24;18.80;45.30
81138;DHT22;70623;50.886;3.892;2023-06-14T02:05:50;18.90;44.60
81138;DHT22;70623;50.886;3.892;2023-06-14T02:08:16;18.70;44.60
81138;DHT22;70623;50.886;3.892;2023-06-14T02:10:42;18.60;45.00
81138;DHT22;70623;50.886;3.892;2023-06-14T02:13:07;18.80;44.20
81138;DHT22;70623;50.886;3.892;2023-06-14T02:15:35;19.00;42.80
81138;DHT22;70623;50.886;3.892;2023-06-14T02:18:02;19.10;42.10
81138;DHT22;70623;50.886;3.892;2023-06-14T02:20:28;19.20;41.60
81138;DHT22;70623;50.886;3.892;2023-06-14T02:22:57;19.30;41.20
81138;DHT22;70623;50.886;3.892;2023-06-14T02:25:22;19.20;41.30
81138;DHT22;70623;50.886;3.892;2023-06-14T02:27:48;19.10;41.70
81138;DHT22;70623;50.886;3.892;2023-06-14T02:30:14;19.00;42.10
81138;DHT22;70623;50.886;3.892;2023-06-14T02:32:41;19.00;42.00
81138;DHT22;70623;50.886;3.892;2023-06-14T02:35:08;18.90;42.30
81138;DHT22;70623;50.886;3.892;2023-06-14T02:37:37;18.70;42.80
81138;DHT22;70623;50.886;3.892;2023-06-14T02:40:02;18.60;43.30
81138;DHT22;70623;50.886;3.892;2023-06-14T02:42:29;18.60;43.10
81138;DHT22;70623;50.886;3.892;2023-06-14T02:44:54;18.60;43.20
81138;DHT22;70623;50.886;3.892;2023-06-14T02:47:20;18.40;44.00
81138;DHT22;70623;50.886;3.892;2023-06-14T02:49:48;18.20;44.70
81138;DHT22;70623;50.886;3.892;2023-06-14T02:52:16;18.00;45.40
81138;DHT22;70623;50.886;3.892;2023-06-14T02:54:44;18.00;45.90
81138;DHT22;70623;50.886;3.892;2023-06-14T02:57:10;18.40;44.70
81138;DHT22;70623;50.886;3.892;2023-06-14T02:59:38;18.50;44.80
81138;DHT22;70623;50.886;3.892;2023-06-14T03:02:04;18.30;44.80
81138;DHT22;70623;50.886;3.892;2023-06-14T03:04:30;18.20;45.10
81138;DHT22;70623;50.886;3.892;2023-06-14T03:07:00;18.00;45.50
81138;DHT22;70623;50.886;3.892;2023-06-14T03:09:28;17.90;46.90
81138;DHT22;70623;50.886;3.892;2023-06-14T03:11:54;17.90;45.60
81138;DHT22;70623;50.886;3.892;2023-06-14T03:14:19;17.90;45.50
81138;DHT22;70623;50.886;3.892;2023-06-14T03:16:46;18.00;44.90
81138;DHT22;70623;50.886;3.892;2023-06-14T03:19:12;18.00;44.50
81138;DHT22;70623;50.886;3.892;2023-06-14T03:21:38;18.00;43.80
81138;DHT22;70623;50.886;3.892;2023-06-14T03:24:08;17.90;44.10
81138;DHT22;70623;50.886;3.892;2023-06-14T03:26:36;18.00;44.80
81138;DHT22;70623;50.886;3.892;2023-06-14T03:29:02;18.40;42.60
81138;DHT22;70623;50.886;3.892;2023-06-14T03:31:29;18.30;43.00
81138;DHT22;70623;50.886;3.892;2023-06-14T03:34:00;17.90;44.80
81138;DHT22;70623;50.886;3.892;2023-06-14T03:36:26;17.80;43.70
81138;DHT22;70623;50.886;3.892;2023-06-14T03:38:53;17.70;43.40
81138;DHT22;70623;50.886;3.892;2023-06-14T03:41:20;17.60;43.60
81138;DHT22;70623;50.886;3.892;2023-06-14T03:43:45;17.60;43.70
81138;DHT22;70623;50.886;3.892;2023-06-14T03:46:11;17.70;43.00
81138;DHT22;70623;50.886;3.892;2023-06-14T03:48:37;17.70;42.60
81138;DHT22;70623;50.886;3.892;2023-06-14T03:51:04;17.70;42.80
81138;DHT22;70623;50.886;3.892;2023-06-14T03:53:30;17.70;42.60
81138;DHT22;70623;50.886;3.892;2023-06-14T03:55:58;17.70;42.30
81138;DHT22;70623;50.886;3.892;2023-06-14T03:58:25;18.00;41.80
81138;DHT22;70623;50.886;3.892;2023-06-14T04:00:51;18.20;41.10
81138;DHT22;70623;50.886;3.892;2023-06-14T04:03:16;18.20;40.70
81138;DHT22;70623;50.886;3.892;2023-06-14T04:05:42;18.10;40.40
81138;DHT22;70623;50.886;3.892;2023-06-14T04:08:15;18.00;41.30
81138;DHT22;70623;50.886;3.892;2023-06-14T04:10:41;18.00;41.30
81138;DHT22;70623;50.886;3.892;2023-06-14T04:13:07;17.90;40.80
81138;DHT22;70623;50.886;3.892;2023-06-14T04:15:33;17.80;41.10
81138;DHT22;70623;50.886;3.892;2023-06-14T04:17:59;17.80;41.40
81138;DHT22;70623;50.886;3.892;2023-06-14T04:20:25;17.80;41.00
81138;DHT22;70623;50.886;3.892;2023-06-14T04:22:52;17.80;40.80
81138;DHT22;70623;50.886;3.892;2023-06-14T04:25:18;18.00;40.40
81138;DHT22;70623;50.886;3.892;2023-06-14T04:27:46;17.90;40.20
81138;DHT22;70623;50.886;3.892;2023-06-14T04:30:12;17.90;40.20
81138;DHT22;70623;50.886;3.892;2023-06-14T04:32:38;18.00;40.00
81138;DHT22;70623;50.886;3.892;2023-06-14T04:35:08;18.20;39.40
81138;DHT22;70623;50.886;3.892;2023-06-14T04:37:34;18.40;39.00
81138;DHT22;70623;50.886;3.892;2023-06-14T04:40:00;18.60;38.10
81138;DHT22;70623;50.886;3.892;2023-06-14T04:42:26;18.70;37.70
81138;DHT22;70623;50.886;3.892;2023-06-14T04:44:56;18.80;37.60
81138;DHT22;70623;50.886;3.892;2023-06-14T04:47:22;18.90;37.10
81138;DHT22;70623;50.886;3.892;2023-06-14T04:49:50;19.00;36.90
81138;DHT22;70623;50.886;3.892;2023-06-14T04:52:19;18.90;37.40
81138;DHT22;70623;50.886;3.892;2023-06-14T04:54:46;19.10;36.60
81138;DHT22;70623;50.886;3.892;2023-06-14T04:57:12;19.30;36.00
81138;DHT22;70623;50.886;3.892;2023-06-14T04:59:47;19.50;35.80
81138;DHT22;70623;50.886;3.892;2023-06-14T05:02:16;19.60;35.40
81138;DHT22;70623;50.886;3.892;2023-06-14T05:04:41;19.60;35.20
81138;DHT22;70623;50.886;3.892;2023-06-14T05:07:08;19.70;34.70
81138;DHT22;70623;50.886;3.892;2023-06-14T05:09:41;19.70;34.90
81138;DHT22;70623;50.886;3.892;2023-06-14T05:12:09;19.60;34.90
81138;DHT22;70623;50.886;3.892;2023-06-14T05:14:36;19.70;35.30
81138;DHT22;70623;50.886;3.892;2023-06-14T05:17:02;19.60;35.10
81138;DHT22;70623;50.886;3.892;2023-06-14T05:19:31;19.60;35.40
81138;DHT22;70623;50.886;3.892;2023-06-14T05:21:56;19.60;35.40
81138;DHT22;70623;50.886;3.892;2023-06-14T05:24:22;19.70;35.20
81138;DHT22;70623;50.886;3.892;2023-06-14T05:26:48;19.90;34.50
81138;DHT22;70623;50.886;3.892;2023-06-14T05:29:14;20.00;33.60
81138;DHT22;70623;50.886;3.892;2023-06-14T05:31:40;20.10;33.50
81138;DHT22;70623;50.886;3.892;2023-06-14T05:34:07;20.20;33.50
81138;DHT22;70623;50.886;3.892;2023-06-14T05:36:33;20.30;33.20
81138;DHT22;70623;50.886;3.892;2023-06-14T05:39:01;20.30;33.10
81138;DHT22;70623;50.886;3.892;2023-06-14T05:41:28;20.30;33.50
81138;DHT22;70623;50.886;3.892;2023-06-14T05:43:55;20.30;32.70
81138;DHT22;70623;50.886;3.892;2023-06-14T05:46:22;20.20;33.80
81138;DHT22;70623;50.886;3.892;2023-06-14T05:48:50;20.30;33.60
81138;DHT22;70623;50.886;3.892;2023-06-14T05:51:16;20.30;33.30
81138;DHT22;70623;50.886;3.892;2023-06-14T05:53:47;20.40;33.50
81138;DHT22;70623;50.886;3.892;2023-06-14T05:56:13;20.40;33.50
81138;DHT22;70623;50.886;3.892;2023-06-14T05:58:39;20.50;33.10
81138;DHT22;70623;50.886;3.892;2023-06-14T06:01:05;20.50;33.30
81138;DHT22;70623;50.886;3.892;2023-06-14T06:03:31;20.50;33.20
81138;DHT22;70623;50.886;3.892;2023-06-14T06:05:58;20.70;32.60
81138;DHT22;70623;50.886;3.892;2023-06-14T06:08:23;20.90;32.40
81138;DHT22;70623;50.886;3.892;2023-06-14T06:10:49;21.00;31.00
81138;DHT22;70623;50.886;3.892;2023-06-14T06:13:15;20.80;31.80
81138;DHT22;70623;50.886;3.892;2023-06-14T06:15:41;21.00;31.10
81138;DHT22;70623;50.886;3.892;2023-06-14T06:18:07;20.80;30.80
81138;DHT22;70623;50.886;3.892;2023-06-14T06:20:33;20.90;30.90
81138;DHT22;70623;50.886;3.892;2023-06-14T06:22:58;21.10;30.60
81138;DHT22;70623;50.886;3.892;2023-06-14T06:25:27;21.50;30.00
81138;DHT22;70623;50.886;3.892;2023-06-14T06:27:56;22.00;29.20
81138;DHT22;70623;50.886;3.892;2023-06-14T06:30:31;22.60;27.50
81138;DHT22;70623;50.886;3.892;2023-06-14T06:33:01;22.90;27.30
81138;DHT22;70623;50.886;3.892;2023-06-14T06:35:29;23.20;26.50
81138;DHT22;70623;50.886;3.892;2023-06-14T06:37:56;22.70;26.70
81138;DHT22;70623;50.886;3.892;2023-06-14T06:40:22;23.30;26.40
81138;DHT22;70623;50.886;3.892;2023-06-14T06:42:50;23.30;26.10
81138;DHT22;70623;50.886;3.892;2023-06-14T06:45:16;24.20;25.20
81138;DHT22;70623;50.886;3.892;2023-06-14T06:47:44;24.80;25.30
81138;DHT22;70623;50.886;3.892;2023-06-14T06:50:10;25.00;23.80
81138;DHT22;70623;50.886;3.892;2023-06-14T06:52:36;25.60;23.80
81138;DHT22;70623;50.886;3.892;2023-06-14T06:55:02;26.50;22.10
81138;DHT22;70623;50.886;3.892;2023-06-14T06:57:28;27.10;21.10
81138;DHT22;70623;50.886;3.892;2023-06-14T06:59:57;25.30;22.10
81138;DHT22;70623;50.886;3.892;2023-06-14T07:02:23;24.70;24.30
81138;DHT22;70623;50.886;3.892;2023-06-14T07:04:51;25.00;23.90
81138;DHT22;70623;50.886;3.892;2023-06-14T07:07:20;24.80;23.90
81138;DHT22;70623;50.886;3.892;2023-06-14T07:09:46;25.40;22.60
81138;DHT22;70623;50.886;3.892;2023-06-14T07:12:12;25.50;22.50
81138;DHT22;70623;50.886;3.892;2023-06-14T07:14:39;25.90;22.90
81138;DHT22;70623;50.886;3.892;2023-06-14T07:17:05;26.10;22.50
81138;DHT22;70623;50.886;3.892;2023-06-14T07:19:31;25.40;23.10
81138;DHT22;70623;50.886;3.892;2023-06-14T07:21:57;25.00;23.20
81138;DHT22;70623;50.886;3.892;2023-06-14T07:24:24;24.70;24.20
81138;DHT22;70623;50.886;3.892;2023-06-14T07:26:50;25.20;22.90
81138;DHT22;70623;50.886;3.892;2023-06-14T07:29:16;24.60;23.80
81138;DHT22;70623;50.886;3.892;2023-06-14T07:31:44;24.40;24.20
81138;DHT22;70623;50.886;3.892;2023-06-14T07:34:10;25.20;23.60
81138;DHT22;70623;50.886;3.892;2023-06-14T07:36:35;26.10;22.30
81138;DHT22;70623;50.886;3.892;2023-06-14T07:39:02;26.70;21.90
81138;DHT22;70623;50.886;3.892;2023-06-14T07:41:29;27.80;19.90
81138;DHT22;70623;50.886;3.892;2023-06-14T07:43:57;27.90;19.80
81138;DHT22;70623;50.886;3.892;2023-06-14T07:46:23;27.50;19.80
81138;DHT22;70623;50.886;3.892;2023-06-14T07:48:50;28.60;19.50
81138;DHT22;70623;50.886;3.892;2023-06-14T07:51:19;30.10;17.20
81138;DHT22;70623;50.886;3.892;2023-06-14T07:53:45;29.20;16.90
81138;DHT22;70623;50.886;3.892;2023-06-14T07:56:11;29.40;17.10
81138;DHT22;70623;50.886;3.892;2023-06-14T07:58:37;29.00;16.90
81138;DHT22;70623;50.886;3.892;2023-06-14T08:01:03;27.80;18.50
81138;DHT22;70623;50.886;3.892;2023-06-14T08:03:32;27.90;19.00
81138;DHT22;70623;50.886;3.892;2023-06-14T08:06:00;27.60;19.50
81138;DHT22;70623;50.886;3.892;2023-06-14T08:08:26;28.00;19.20
81138;DHT22;70623;50.886;3.892;2023-06-14T08:10:54;28.50;18.10
81138;DHT22;70623;50.886;3.892;2023-06-14T08:13:20;29.40;17.40
81138;DHT22;70623;50.886;3.892;2023-06-14T08:15:46;29.20;17.10
81138;DHT22;70623;50.886;3.892;2023-06-14T08:18:12;30.80;16.10
81138;DHT22;70623;50.886;3.892;2023-06-14T08:20:40;30.80;16.10
81138;DHT22;70623;50.886;3.892;2023-06-14T08:23:06;32.00;14.70
81138;DHT22;70623;50.886;3.892;2023-06-14T08:25:33;32.40;14.40
81138;DHT22;70623;50.886;3.892;2023-06-14T08:27:59;31.80;14.00
81138;DHT22;70623;50.886;3.892;2023-06-14T08:30:25;30.30;16.10
81138;DHT22;70623;50.886;3.892;2023-06-14T08:32:51;30.10;17.30
81138;DHT22;70623;50.886;3.892;2023-06-14T08:35:17;31.00;15.30
81138;DHT22;70623;50.886;3.892;2023-06-14T08:37:43;32.20;15.50
81138;DHT22;70623;50.886;3.892;2023-06-14T08:40:30;33.60;13.20
81138;DHT22;70623;50.886;3.892;2023-06-14T08:42:56;33.80;12.90
81138;DHT22;70623;50.886;3.892;2023-06-14T08:45:23;31.50;14.40
81138;DHT22;70623;50.886;3.892;2023-06-14T08:47:52;31.30;14.90
81138;DHT22;70623;50.886;3.892;2023-06-14T08:50:26;30.20;16.40
81138;DHT22;70623;50.886;3.892;2023-06-14T08:53:00;30.80;15.50
81138;DHT22;70623;50.886;3.892;2023-06-14T08:55:31;32.40;13.20
81138;DHT22;70623;50.886;3.892;2023-06-14T08:57:59;32.10;13.20
81138;DHT22;70623;50.886;3.892;2023-06-14T09:00:28;33.10;13.20
81138;DHT22;70623;50.886;3.892;2023-06-14T09:03:01;33.10;12.60
81138;DHT22;70623;50.886;3.892;2023-06-14T09:05:28;32.60;12.90
81138;DHT22;70623;50.886;3.892;2023-06-14T09:07:54;33.40;12.40
81138;DHT22;70623;50.886;3.892;2023-06-14T09:10:27;33.20;12.10
81138;DHT22;70623;50.886;3.892;2023-06-14T09:12:54;34.90;11.10
81138;DHT22;70623;50.886;3.892;2023-06-14T09:15:25;34.70;10.80
81138;DHT22;70623;50.886;3.892;2023-06-14T09:17:51;34.70;10.90
81138;DHT22;70623;50.886;3.892;2023-06-14T09:20:17;36.20;9.70
81138;DHT22;70623;50.886;3.892;2023-06-14T09:22:45;36.90;9.30
81138;DHT22;70623;50.886;3.892;2023-06-14T09:25:30;35.20;10.40
81138;DHT22;70623;50.886;3.892;2023-06-14T09:28:18;34.70;10.80
81138;DHT22;70623;50.886;3.892;2023-06-14T09:30:48;32.80;11.80
81138;DHT22;70623;50.886;3.892;2023-06-14T09:33:17;32.10;12.40
81138;DHT22;70623;50.886;3.892;2023-06-14T09:35:56;33.40;11.50
81138;DHT22;70623;50.886;3.892;2023-06-14T09:38:26;34.00;10.80
81138;DHT22;70623;50.886;3.892;2023-06-14T09:40:52;34.60;10.50
81138;DHT22;70623;50.886;3.892;2023-06-14T09:43:50;34.40;10.90
81138;DHT22;70623;50.886;3.892;2023-06-14T09:46:26;34.10;10.50
81138;DHT22;70623;50.886;3.892;2023-06-14T09:49:10;33.80;10.00
81138;DHT22;70623;50.886;3.892;2023-06-14T09:51:50;33.40;10.30
81138;DHT22;70623;50.886;3.892;2023-06-14T09:54:22;33.30;11.10
81138;DHT22;70623;50.886;3.892;2023-06-14T09:56:53;33.20;10.70
81138;DHT22;70623;50.886;3.892;2023-06-14T09:59:22;33.10;10.70
81138;DHT22;70623;50.886;3.892;2023-06-14T10:01:58;32.60;11.70
81138;DHT22;70623;50.886;3.892;2023-06-14T10:04:25;33.70;9.70
81138;DHT22;70623;50.886;3.892;2023-06-14T10:06:59;34.20;9.80
81138;DHT22;70623;50.886;3.892;2023-06-14T10:09:30;33.60;9.80
81138;DHT22;70623;50.886;3.892;2023-06-14T10:11:57;34.50;9.40
81138;DHT22;70623;50.886;3.892;2023-06-14T10:14:22;34.60;9.40
81138;DHT22;70623;50.886;3.892;2023-06-14T10:17:08;34.00;10.00
81138;DHT22;70623;50.886;3.892;2023-06-14T10:19:44;33.10;10.90
81138;DHT22;70623;50.886;3.892;2023-06-14T10:22:14;33.80;10.80
81138;DHT22;70623;50.886;3.892;2023-06-14T10:24:43;33.40;11.10
81138;DHT22;70623;50.886;3.892;2023-06-14T10:27:13;33.70;10.10
81138;DHT22;70623;50.886;3.892;2023-06-14T10:30:01;33.60;10.10
81138;DHT22;70623;50.886;3.892;2023-06-14T10:32:28;34.40;10.30
81138;DHT22;70623;50.886;3.892;2023-06-14T10:35:00;34.80;9.30
81138;DHT22;70623;50.886;3.892;2023-06-14T10:37:26;35.10;8.30
81138;DHT22;70623;50.886;3.892;2023-06-14T10:39:52;34.50;9.40
81138;DHT22;70623;50.886;3.892;2023-06-14T10:42:19;35.00;8.80
81138;DHT22;70623;50.886;3.892;2023-06-14T10:44:53;35.00;8.70
81138;DHT22;70623;50.886;3.892;2023-06-14T10:47:23;34.80;9.10
81138;DHT22;70623;50.886;3.892;2023-06-14T10:49:52;33.10;10.20
81138;DHT22;70623;50.886;3.892;2023-06-14T10:52:23;33.90;9.90
81138;DHT22;70623;50.886;3.892;2023-06-14T10:57:38;34.10;10.20
81138;DHT22;70623;50.886;3.892;2023-06-14T11:00:06;34.10;11.30
81138;DHT22;70623;50.886;3.892;2023-06-14T11:03:31;35.30;9.30
81138;DHT22;70623;50.886;3.892;2023-06-14T11:05:57;34.00;9.70
81138;DHT22;70623;50.886;3.892;2023-06-14T11:11:18;33.70;10.80
81138;DHT22;70623;50.886;3.892;2023-06-14T11:13:46;34.80;9.70
81138;DHT22;70623;50.886;3.892;2023-06-14T11:16:16;34.30;10.50
81138;DHT22;70623;50.886;3.892;2023-06-14T11:18:44;33.50;10.70
81138;DHT22;70623;50.886;3.892;2023-06-14T11:21:11;33.50;10.50
81138;DHT22;70623;50.886;3.892;2023-06-14T11:23:37;33.50;10.10
81138;DHT22;70623;50.886;3.892;2023-06-14T11:26:05;32.50;11.10
81138;DHT22;70623;50.886;3.892;2023-06-14T11:28:41;31.70;12.10
81138;DHT22;70623;50.886;3.892;2023-06-14T11:31:07;32.10;11.10
81138;DHT22;70623;50.886;3.892;2023-06-14T11:33:33;31.70;11.20
81138;DHT22;70623;50.886;3.892;2023-06-14T11:36:02;33.50;10.20
81138;DHT22;70623;50.886;3.892;2023-06-14T11:38:28;34.90;9.10
81138;DHT22;70623;50.886;3.892;2023-06-14T11:40:58;35.60;8.40
81138;DHT22;70623;50.886;3.892;2023-06-14T11:43:25;34.10;9.10
81138;DHT22;70623;50.886;3.892;2023-06-14T11:45:54;33.80;9.60
81138;DHT22;70623;50.886;3.892;2023-06-14T11:48:22;33.20;10.10
81138;DHT22;70623;50.886;3.892;2023-06-14T11:50:50;32.10;10.50
81138;DHT22;70623;50.886;3.892;2023-06-14T11:53:16;32.60;10.60
81138;DHT22;70623;50.886;3.892;2023-06-14T11:55:42;31.90;10.80
81138;DHT22;70623;50.886;3.892;2023-06-14T11:58:10;32.70;10.30
81138;DHT22;70623;50.886;3.892;2023-06-14T12:00:37;34.10;9.30
81138;DHT22;70623;50.886;3.892;2023-06-14T12:03:03;35.30;8.30
81138;DHT22;70623;50.886;3.892;2023-06-14T12:05:29;35.80;8.00
81138;DHT22;70623;50.886;3.892;2023-06-14T12:07:59;33.50;9.20
81138;DHT22;70623;50.886;3.892;2023-06-14T12:10:29;34.40;9.70
81138;DHT22;70623;50.886;3.892;2023-06-14T12:12:58;35.70;8.20
81138;DHT22;70623;50.886;3.892;2023-06-14T12:15:29;35.90;7.60
81138;DHT22;70623;50.886;3.892;2023-06-14T12:17:56;35.40;7.70
81138;DHT22;70623;50.886;3.892;2023-06-14T12:20:22;35.20;7.60
81138;DHT22;70623;50.886;3.892;2023-06-14T12:22:52;35.10;8.00
81138;DHT22;70623;50.886;3.892;2023-06-14T12:25:32;36.30;7.30
81138;DHT22;70623;50.886;3.892;2023-06-14T12:28:08;36.40;6.90
81138;DHT22;70623;50.886;3.892;2023-06-14T12:30:35;36.40;7.10
81138;DHT22;70623;50.886;3.892;2023-06-14T12:33:02;35.40;6.70
81138;DHT22;70623;50.886;3.892;2023-06-14T12:35:28;34.10;8.10
81138;DHT22;70623;50.886;3.892;2023-06-14T12:37:54;34.10;7.70
81138;DHT22;70623;50.886;3.892;2023-06-14T12:40:19;34.30;8.10
81138;DHT22;70623;50.886;3.892;2023-06-14T12:42:48;33.20;8.50
81138;DHT22;70623;50.886;3.892;2023-06-14T12:45:13;33.10;9.10
81138;DHT22;70623;50.886;3.892;2023-06-14T12:47:39;32.70;9.40
81138;DHT22;70623;50.886;3.892;2023-06-14T12:50:06;33.30;9.50
81138;DHT22;70623;50.886;3.892;2023-06-14T12:52:32;35.10;7.60
81138;DHT22;70623;50.886;3.892;2023-06-14T12:55:03;33.90;7.90
81138;DHT22;70623;50.886;3.892;2023-06-14T12:57:29;32.40;9.60
81138;DHT22;70623;50.886;3.892;2023-06-14T12:59:55;33.80;9.20
81138;DHT22;70623;50.886;3.892;2023-06-14T13:02:20;35.70;7.10
81138;DHT22;70623;50.886;3.892;2023-06-14T13:04:49;36.40;6.70
81138;DHT22;70623;50.886;3.892;2023-06-14T13:07:14;36.20;6.90
81138;DHT22;70623;50.886;3.892;2023-06-14T13:09:41;35.00;8.10
81138;DHT22;70623;50.886;3.892;2023-06-14T13:12:10;34.70;7.90
81138;DHT22;70623;50.886;3.892;2023-06-14T13:14:39;33.20;9.20
81138;DHT22;70623;50.886;3.892;2023-06-14T13:17:08;34.40;8.60
81138;DHT22;70623;50.886;3.892;2023-06-14T13:19:34;34.30;7.90
81138;DHT22;70623;50.886;3.892;2023-06-14T13:22:00;36.00;7.10
81138;DHT22;70623;50.886;3.892;2023-06-14T13:24:28;36.70;6.30
81138;DHT22;70623;50.886;3.892;2023-06-14T13:26:56;36.90;6.40
81138;DHT22;70623;50.886;3.892;2023-06-14T13:29:23;37.10;6.50
81138;DHT22;70623;50.886;3.892;2023-06-14T13:31:49;37.40;6.40
81138;DHT22;70623;50.886;3.892;2023-06-14T13:34:14;34.90;7.10
81138;DHT22;70623;50.886;3.892;2023-06-14T13:36:42;33.50;8.50
81138;DHT22;70623;50.886;3.892;2023-06-14T13:39:08;33.70;9.10
81138;DHT22;70623;50.886;3.892;2023-06-14T13:41:34;34.80;8.30
81138;DHT22;70623;50.886;3.892;2023-06-14T13:44:01;35.10;8.10
81138;DHT22;70623;50.886;3.892;2023-06-14T13:46:29;36.10;7.20
81138;DHT22;70623;50.886;3.892;2023-06-14T13:48:55;36.00;7.20
81138;DHT22;70623;50.886;3.892;2023-06-14T13:51:20;36.20;6.70
81138;DHT22;70623;50.886;3.892;2023-06-14T13:53:48;35.80;7.00
81138;DHT22;70623;50.886;3.892;2023-06-14T13:56:15;36.60;6.70
81138;DHT22;70623;50.886;3.892;2023-06-14T13:58:43;33.30;9.00
81138;DHT22;70623;50.886;3.892;2023-06-14T14:01:09;34.40;8.70
81138;DHT22;70623;50.886;3.892;2023-06-14T14:03:40;35.80;8.20
81138;DHT22;70623;50.886;3.892;2023-06-14T14:06:05;36.10;6.90
81138;DHT22;70623;50.886;3.892;2023-06-14T14:08:35;34.80;7.30
81138;DHT22;70623;50.886;3.892;2023-06-14T14:11:05;35.90;6.90
81138;DHT22;70623;50.886;3.892;2023-06-14T14:13:33;37.60;5.80
81138;DHT22;70623;50.886;3.892;2023-06-14T14:15:59;38.90;5.20
81138;DHT22;70623;50.886;3.892;2023-06-14T14:18:27;38.20;5.70
81138;DHT22;70623;50.886;3.892;2023-06-14T14:20:52;37.40;5.70
81138;DHT22;70623;50.886;3.892;2023-06-14T14:23:18;38.10;5.10
81138;DHT22;70623;50.886;3.892;2023-06-14T14:25:46;37.50;5.30
81138;DHT22;70623;50.886;3.892;2023-06-14T14:28:11;38.20;4.70
81138;DHT22;70623;50.886;3.892;2023-06-14T14:30:39;38.70;5.00
81138;DHT22;70623;50.886;3.892;2023-06-14T14:33:05;38.40;5.20
81138;DHT22;70623;50.886;3.892;2023-06-14T14:35:32;36.50;6.00
81138;DHT22;70623;50.886;3.892;2023-06-14T14:37:58;36.20;6.80
81138;DHT22;70623;50.886;3.892;2023-06-14T14:40:24;37.40;6.10
81138;DHT22;70623;50.886;3.892;2023-06-14T14:42:50;37.20;6.20
81138;DHT22;70623;50.886;3.892;2023-06-14T14:45:17;38.00;5.90
81138;DHT22;70623;50.886;3.892;2023-06-14T14:47:43;38.50;5.50
81138;DHT22;70623;50.886;3.892;2023-06-14T14:50:09;38.60;5.40
81138;DHT22;70623;50.886;3.892;2023-06-14T14:52:36;38.50;5.20
81138;DHT22;70623;50.886;3.892;2023-06-14T14:55:01;38.30;4.90
81138;DHT22;70623;50.886;3.892;2023-06-14T14:57:27;37.00;5.70
81138;DHT22;70623;50.886;3.892;2023-06-14T14:59:56;37.20;6.30
81138;DHT22;70623;50.886;3.892;2023-06-14T15:02:22;36.60;6.30
81138;DHT22;70623;50.886;3.892;2023-06-14T15:04:49;35.30;7.10
81138;DHT22;70623;50.886;3.892;2023-06-14T15:07:15;35.20;7.10
81138;DHT22;70623;50.886;3.892;2023-06-14T15:09:41;34.60;8.40
81138;DHT22;70623;50.886;3.892;2023-06-14T15:12:07;34.30;8.40
81138;DHT22;70623;50.886;3.892;2023-06-14T15:14:33;35.10;7.40
81138;DHT22;70623;50.886;3.892;2023-06-14T15:16:58;36.00;6.30
81138;DHT22;70623;50.886;3.892;2023-06-14T15:19:27;35.80;6.70
81138;DHT22;70623;50.886;3.892;2023-06-14T15:21:52;36.00;6.00
81138;DHT22;70623;50.886;3.892;2023-06-14T15:24:18;36.00;6.00
81138;DHT22;70623;50.886;3.892;2023-06-14T15:26:43;36.50;6.20
81138;DHT22;70623;50.886;3.892;2023-06-14T15:29:11;37.00;5.70
81138;DHT22;70623;50.886;3.892;2023-06-14T15:31:39;38.10;5.10
81138;DHT22;70623;50.886;3.892;2023-06-14T15:34:05;38.70;4.70
81138;DHT22;70623;50.886;3.892;2023-06-14T15:36:31;35.40;6.20
81138;DHT22;70623;50.886;3.892;2023-06-14T15:38:57;34.50;7.20
81138;DHT22;70623;50.886;3.892;2023-06-14T15:41:25;34.60;7.00
81138;DHT22;70623;50.886;3.892;2023-06-14T15:43:51;35.80;6.60
81138;DHT22;70623;50.886;3.892;2023-06-14T15:46:22;36.70;5.20